sensor_id;sensor_type;location;lat;lon;timestamp;P1;durP1;ratioP1;P2;durP2;ratioP2
56730;SDS011;42613;47.424;8.560;2023-06-19T00:02:02;7.43;;;5.95;;
56730;SDS011;42613;47.424;8.560;2023-06-19T00:04:27;7.47;;;5.90;;
56730;SDS011;42613;47.424;8.560;2023-06-19T00:06:53;8.18;;;4.95;;
56730;SDS011;42613;47.424;8.560;2023-06-19T00:09:19;8.45;;;6.10;;
56730;SDS011;42613;47.424;8.560;2023-06-19T00:11:44;7.95;;;5.55;;
56730;SDS011;42613;47.424;8.560;2023-06-19T00:14:10;6.38;;;4.78;;
56730;SDS011;42613;47.424;8.560;2023-06-19T00:16:36;7.80;;;5.38;;
56730;SDS011;42613;47.424;8.560;2023-06-19T00:19:01;10.35;;;5.18;;
56730;SDS011;42613;47.424;8.560;2023-06-19T00:21:28;5.63;;;4.95;;
56730;SDS011;42613;47.424;8.560;2023-06-19T00:23:54;6.68;;;5.07;;
56730;SDS011;42613;47.424;8.560;2023-06-19T00:26:20;7.43;;;5.25;;
56730;SDS011;42613;47.424;8.560;2023-06-19T00:28:47;6.57;;;5.05;;
56730;SDS011;42613;47.424;8.560;2023-06-19T00:31:13;8.77;;;5.43;;
56730;SDS011;42613;47.424;8.560;2023-06-19T00:33:40;7.05;;;5.47;;
56730;SDS011;42613;47.424;8.560;2023-06-19T00:36:12;6.43;;;5.10;;
56730;SDS011;42613;47.424;8.560;2023-06-19T00:38:39;6.35;;;4.88;;
56730;SDS011;42613;47.424;8.560;2023-06-19T00:41:05;5.78;;;5.15;;
56730;SDS011;42613;47.424;8.560;2023-06-19T00:43:31;5.22;;;4.72;;
56730;SDS011;42613;47.424;8.560;2023-06-19T00:46:00;5.50;;;4.70;;
56730;SDS011;42613;47.424;8.560;2023-06-19T00:48:27;4.80;;;3.88;;
56730;SDS011;42613;47.424;8.560;2023-06-19T00:50:53;8.00;;;4.25;;
56730;SDS011;42613;47.424;8.560;2023-06-19T00:53:20;6.78;;;5.13;;
56730;SDS011;42613;47.424;8.560;2023-06-19T00:55:46;6.35;;;4.80;;
56730;SDS011;42613;47.424;8.560;2023-06-19T00:58:15;6.30;;;5.03;;
56730;SDS011;42613;47.424;8.560;2023-06-19T01:00:40;7.60;;;4.63;;
56730;SDS011;42613;47.424;8.560;2023-06-19T01:03:06;5.68;;;4.65;;
56730;SDS011;42613;47.424;8.560;2023-06-19T01:05:31;6.07;;;5.18;;
56730;SDS011;42613;47.424;8.560;2023-06-19T01:10:53;5.40;;;4.88;;
56730;SDS011;42613;47.424;8.560;2023-06-19T01:13:24;6.22;;;4.80;;
56730;SDS011;42613;47.424;8.560;2023-06-19T01:15:57;6.75;;;4.95;;
56730;SDS011;42613;47.424;8.560;2023-06-19T01:18:25;5.50;;;4.90;;
56730;SDS011;42613;47.424;8.560;2023-06-19T01:20:53;5.80;;;4.95;;
56730;SDS011;42613;47.424;8.560;2023-06-19T01:23:18;8.32;;;5.43;;
56730;SDS011;42613;47.424;8.560;2023-06-19T01:25:49;7.15;;;4.90;;
56730;SDS011;42613;47.424;8.560;2023-06-19T01:28:14;6.05;;;5.40;;
56730;SDS011;42613;47.424;8.560;2023-06-19T01:30:40;7.20;;;5.65;;
56730;SDS011;42613;47.424;8.560;2023-06-19T01:33:12;7.07;;;5.15;;
56730;SDS011;42613;47.424;8.560;2023-06-19T01:35:43;5.50;;;4.75;;
56730;SDS011;42613;47.424;8.560;2023-06-19T01:38:12;7.80;;;4.93;;
56730;SDS011;42613;47.424;8.560;2023-06-19T01:40:38;5.78;;;5.05;;
56730;SDS011;42613;47.424;8.560;2023-06-19T01:43:05;5.40;;;4.90;;
56730;SDS011;42613;47.424;8.560;2023-06-19T01:45:33;9.15;;;5.75;;
56730;SDS011;42613;47.424;8.560;2023-06-19T01:47:58;8.55;;;5.13;;
56730;SDS011;42613;47.424;8.560;2023-06-19T01:50:24;5.57;;;4.97;;
56730;SDS011;42613;47.424;8.560;2023-06-19T01:52:50;5.22;;;4.72;;
56730;SDS011;42613;47.424;8.560;2023-06-19T01:55:16;7.38;;;5.25;;
56730;SDS011;42613;47.424;8.560;2023-06-19T01:57:42;6.97;;;4.82;;
56730;SDS011;42613;47.424;8.560;2023-06-19T02:00:07;6.07;;;4.50;;
56730;SDS011;42613;47.424;8.560;2023-06-19T02:02:35;10.20;;;5.63;;
56730;SDS011;42613;47.424;8.560;2023-06-19T02:05:00;9.48;;;4.95;;
56730;SDS011;42613;47.424;8.560;2023-06-19T02:07:25;7.13;;;5.60;;
56730;SDS011;42613;47.424;8.560;2023-06-19T02:09:51;6.18;;;5.07;;
56730;SDS011;42613;47.424;8.560;2023-06-19T02:12:16;8.65;;;5.40;;
56730;SDS011;42613;47.424;8.560;2023-06-19T02:14:41;8.17;;;5.50;;
56730;SDS011;42613;47.424;8.560;2023-06-19T02:17:07;5.53;;;4.90;;
56730;SDS011;42613;47.424;8.560;2023-06-19T02:19:32;6.85;;;5.15;;
56730;SDS011;42613;47.424;8.560;2023-06-19T02:21:57;11.52;;;5.22;;
56730;SDS011;42613;47.424;8.560;2023-06-19T02:24:23;9.65;;;5.85;;
56730;SDS011;42613;47.424;8.560;2023-06-19T02:26:48;10.45;;;5.93;;
56730;SDS011;42613;47.424;8.560;2023-06-19T02:29:15;13.35;;;6.10;;
56730;SDS011;42613;47.424;8.560;2023-06-19T02:31:40;9.98;;;6.57;;
56730;SDS011;42613;47.424;8.560;2023-06-19T02:34:07;7.47;;;5.18;;
56730;SDS011;42613;47.424;8.560;2023-06-19T02:36:32;10.07;;;5.82;;
56730;SDS011;42613;47.424;8.560;2023-06-19T02:38:58;9.98;;;5.47;;
56730;SDS011;42613;47.424;8.560;2023-06-19T02:41:23;11.30;;;6.35;;
56730;SDS011;42613;47.424;8.560;2023-06-19T02:43:48;11.30;;;6.17;;
56730;SDS011;42613;47.424;8.560;2023-06-19T02:46:14;8.98;;;5.38;;
56730;SDS011;42613;47.424;8.560;2023-06-19T02:48:40;8.75;;;5.65;;
56730;SDS011;42613;47.424;8.560;2023-06-19T02:51:05;10.15;;;5.68;;
56730;SDS011;42613;47.424;8.560;2023-06-19T02:53:30;10.85;;;5.55;;
56730;SDS011;42613;47.424;8.560;2023-06-19T02:55:56;6.80;;;6.10;;
56730;SDS011;42613;47.424;8.560;2023-06-19T02:58:21;6.73;;;5.43;;
56730;SDS011;42613;47.424;8.560;2023-06-19T03:00:46;11.57;;;5.25;;
56730;SDS011;42613;47.424;8.560;2023-06-19T03:03:12;6.72;;;4.57;;
56730;SDS011;42613;47.424;8.560;2023-06-19T03:05:38;8.43;;;5.38;;
56730;SDS011;42613;47.424;8.560;2023-06-19T03:08:03;6.43;;;5.20;;
56730;SDS011;42613;47.424;8.560;2023-06-19T03:10:29;9.98;;;5.53;;
56730;SDS011;42613;47.424;8.560;2023-06-19T03:12:55;8.77;;;5.88;;
56730;SDS011;42613;47.424;8.560;2023-06-19T03:15:20;9.25;;;5.57;;
56730;SDS011;42613;47.424;8.560;2023-06-19T03:17:45;10.80;;;6.10;;
56730;SDS011;42613;47.424;8.560;2023-06-19T03:20:11;12.35;;;6.45;;
56730;SDS011;42613;47.424;8.560;2023-06-19T03:22:40;8.55;;;5.72;;
56730;SDS011;42613;47.424;8.560;2023-06-19T03:25:06;6.95;;;5.88;;
56730;SDS011;42613;47.424;8.560;2023-06-19T03:27:32;28.73;;;7.03;;
56730;SDS011;42613;47.424;8.560;2023-06-19T03:29:58;10.45;;;5.95;;
56730;SDS011;42613;47.424;8.560;2023-06-19T03:32:23;17.58;;;6.60;;
56730;SDS011;42613;47.424;8.560;2023-06-19T03:34:48;12.00;;;6.80;;
56730;SDS011;42613;47.424;8.560;2023-06-19T03:37:14;9.05;;;6.13;;
56730;SDS011;42613;47.424;8.560;2023-06-19T03:39:39;7.78;;;6.28;;
56730;SDS011;42613;47.424;8.560;2023-06-19T03:42:05;10.15;;;6.47;;
56730;SDS011;42613;47.424;8.560;2023-06-19T03:44:30;8.98;;;6.50;;
56730;SDS011;42613;47.424;8.560;2023-06-19T03:46:55;11.63;;;6.50;;
56730;SDS011;42613;47.424;8.560;2023-06-19T03:49:21;13.30;;;6.90;;
56730;SDS011;42613;47.424;8.560;2023-06-19T03:51:46;11.23;;;6.85;;
56730;SDS011;42613;47.424;8.560;2023-06-19T03:54:11;10.45;;;6.60;;
56730;SDS011;42613;47.424;8.560;2023-06-19T03:56:37;12.57;;;6.43;;
56730;SDS011;42613;47.424;8.560;2023-06-19T03:59:03;10.90;;;7.03;;
56730;SDS011;42613;47.424;8.560;2023-06-19T04:01:28;8.83;;;6.53;;
56730;SDS011;42613;47.424;8.560;2023-06-19T04:03:53;17.50;;;8.47;;
56730;SDS011;42613;47.424;8.560;2023-06-19T04:06:19;9.25;;;7.18;;
56730;SDS011;42613;47.424;8.560;2023-06-19T04:08:44;9.77;;;6.45;;
56730;SDS011;42613;47.424;8.560;2023-06-19T04:11:09;15.00;;;6.70;;
56730;SDS011;42613;47.424;8.560;2023-06-19T04:13:35;19.70;;;7.25;;
56730;SDS011;42613;47.424;8.560;2023-06-19T04:16:00;12.77;;;7.43;;
56730;SDS011;42613;47.424;8.560;2023-06-19T04:18:25;10.27;;;6.78;;
56730;SDS011;42613;47.424;8.560;2023-06-19T04:20:52;14.98;;;8.13;;
56730;SDS011;42613;47.424;8.560;2023-06-19T04:23:18;11.50;;;8.00;;
56730;SDS011;42613;47.424;8.560;2023-06-19T04:25:43;9.18;;;6.80;;
56730;SDS011;42613;47.424;8.560;2023-06-19T04:28:08;18.10;;;7.70;;
56730;SDS011;42613;47.424;8.560;2023-06-19T04:30:34;8.57;;;6.47;;
56730;SDS011;42613;47.424;8.560;2023-06-19T04:32:59;16.17;;;7.13;;
56730;SDS011;42613;47.424;8.560;2023-06-19T04:35:24;9.18;;;6.28;;
56730;SDS011;42613;47.424;8.560;2023-06-19T04:37:50;9.48;;;6.80;;
56730;SDS011;42613;47.424;8.560;2023-06-19T04:40:15;9.13;;;6.45;;
56730;SDS011;42613;47.424;8.560;2023-06-19T04:42:41;10.43;;;7.00;;
56730;SDS011;42613;47.424;8.560;2023-06-19T04:45:06;8.65;;;6.70;;
56730;SDS011;42613;47.424;8.560;2023-06-19T04:47:32;9.23;;;7.07;;
56730;SDS011;42613;47.424;8.560;2023-06-19T04:49:59;11.75;;;7.70;;
56730;SDS011;42613;47.424;8.560;2023-06-19T04:52:25;9.98;;;7.30;;
56730;SDS011;42613;47.424;8.560;2023-06-19T04:54:50;9.93;;;7.03;;
56730;SDS011;42613;47.424;8.560;2023-06-19T04:57:16;8.15;;;7.13;;
56730;SDS011;42613;47.424;8.560;2023-06-19T04:59:42;8.07;;;6.60;;
56730;SDS011;42613;47.424;8.560;2023-06-19T05:02:08;7.60;;;6.15;;
56730;SDS011;42613;47.424;8.560;2023-06-19T05:04:34;10.02;;;6.78;;
56730;SDS011;42613;47.424;8.560;2023-06-19T05:06:59;15.23;;;6.50;;
56730;SDS011;42613;47.424;8.560;2023-06-19T05:09:25;9.57;;;6.55;;
56730;SDS011;42613;47.424;8.560;2023-06-19T05:11:50;8.77;;;5.55;;
56730;SDS011;42613;47.424;8.560;2023-06-19T05:14:15;8.10;;;5.17;;
56730;SDS011;42613;47.424;8.560;2023-06-19T05:16:40;6.07;;;5.47;;
56730;SDS011;42613;47.424;8.560;2023-06-19T05:19:06;9.02;;;5.50;;
56730;SDS011;42613;47.424;8.560;2023-06-19T05:21:31;6.32;;;5.65;;
56730;SDS011;42613;47.424;8.560;2023-06-19T05:23:56;7.20;;;5.13;;
56730;SDS011;42613;47.424;8.560;2023-06-19T05:26:22;7.30;;;5.47;;
56730;SDS011;42613;47.424;8.560;2023-06-19T05:28:48;6.13;;;4.93;;
56730;SDS011;42613;47.424;8.560;2023-06-19T05:31:13;9.30;;;5.90;;
56730;SDS011;42613;47.424;8.560;2023-06-19T05:33:40;8.93;;;5.88;;
56730;SDS011;42613;47.424;8.560;2023-06-19T05:36:06;11.05;;;6.40;;
56730;SDS011;42613;47.424;8.560;2023-06-19T05:38:31;9.27;;;5.25;;
56730;SDS011;42613;47.424;8.560;2023-06-19T05:40:57;8.38;;;5.97;;
56730;SDS011;42613;47.424;8.560;2023-06-19T05:43:23;10.63;;;6.10;;
56730;SDS011;42613;47.424;8.560;2023-06-19T05:45:49;7.47;;;5.88;;
56730;SDS011;42613;47.424;8.560;2023-06-19T05:48:15;11.48;;;5.70;;
56730;SDS011;42613;47.424;8.560;2023-06-19T05:50:40;9.98;;;5.95;;
56730;SDS011;42613;47.424;8.560;2023-06-19T05:53:06;9.88;;;5.55;;
56730;SDS011;42613;47.424;8.560;2023-06-19T05:55:31;8.90;;;6.63;;
56730;SDS011;42613;47.424;8.560;2023-06-19T05:57:57;8.43;;;6.15;;
56730;SDS011;42613;47.424;8.560;2023-06-19T06:00:22;6.47;;;5.30;;
56730;SDS011;42613;47.424;8.560;2023-06-19T06:02:48;7.30;;;5.80;;
56730;SDS011;42613;47.424;8.560;2023-06-19T06:05:15;6.38;;;5.78;;
56730;SDS011;42613;47.424;8.560;2023-06-19T06:07:42;8.63;;;5.95;;
56730;SDS011;42613;47.424;8.560;2023-06-19T06:10:07;7.10;;;5.68;;
56730;SDS011;42613;47.424;8.560;2023-06-19T06:12:33;9.32;;;6.30;;
56730;SDS011;42613;47.424;8.560;2023-06-19T06:14:59;10.88;;;7.10;;
56730;SDS011;42613;47.424;8.560;2023-06-19T06:17:24;11.07;;;6.18;;
56730;SDS011;42613;47.424;8.560;2023-06-19T06:19:50;9.32;;;6.30;;
56730;SDS011;42613;47.424;8.560;2023-06-19T06:22:15;8.10;;;6.10;;
56730;SDS011;42613;47.424;8.560;2023-06-19T06:24:40;7.38;;;6.07;;
56730;SDS011;42613;47.424;8.560;2023-06-19T06:27:06;10.75;;;6.60;;
56730;SDS011;42613;47.424;8.560;2023-06-19T06:29:31;11.18;;;6.60;;
56730;SDS011;42613;47.424;8.560;2023-06-19T06:32:06;9.18;;;6.13;;
56730;SDS011;42613;47.424;8.560;2023-06-19T06:34:35;6.78;;;6.07;;
56730;SDS011;42613;47.424;8.560;2023-06-19T06:37:00;9.10;;;5.78;;
56730;SDS011;42613;47.424;8.560;2023-06-19T06:39:26;7.45;;;6.38;;
56730;SDS011;42613;47.424;8.560;2023-06-19T06:41:52;7.95;;;5.93;;
56730;SDS011;42613;47.424;8.560;2023-06-19T06:44:17;8.02;;;6.07;;
56730;SDS011;42613;47.424;8.560;2023-06-19T06:46:43;7.40;;;5.22;;
56730;SDS011;42613;47.424;8.560;2023-06-19T06:49:08;9.23;;;4.53;;
56730;SDS011;42613;47.424;8.560;2023-06-19T06:51:33;7.35;;;4.80;;
56730;SDS011;42613;47.424;8.560;2023-06-19T06:53:59;6.20;;;4.50;;
56730;SDS011;42613;47.424;8.560;2023-06-19T06:56:24;5.10;;;4.10;;
56730;SDS011;42613;47.424;8.560;2023-06-19T06:58:49;6.38;;;4.50;;
56730;SDS011;42613;47.424;8.560;2023-06-19T07:01:15;5.20;;;3.97;;
56730;SDS011;42613;47.424;8.560;2023-06-19T07:03:40;7.90;;;5.30;;
56730;SDS011;42613;47.424;8.560;2023-06-19T07:06:05;6.28;;;4.60;;
56730;SDS011;42613;47.424;8.560;2023-06-19T07:08:31;6.90;;;5.70;;
56730;SDS011;42613;47.424;8.560;2023-06-19T07:10:56;5.90;;;4.95;;
56730;SDS011;42613;47.424;8.560;2023-06-19T07:13:21;9.15;;;5.57;;
56730;SDS011;42613;47.424;8.560;2023-06-19T07:15:48;6.43;;;4.53;;
56730;SDS011;42613;47.424;8.560;2023-06-19T07:18:13;5.22;;;4.55;;
56730;SDS011;42613;47.424;8.560;2023-06-19T07:20:39;7.85;;;5.13;;
56730;SDS011;42613;47.424;8.560;2023-06-19T07:23:04;5.97;;;4.77;;
56730;SDS011;42613;47.424;8.560;2023-06-19T07:25:30;5.85;;;5.07;;
56730;SDS011;42613;47.424;8.560;2023-06-19T07:27:55;6.47;;;4.25;;
56730;SDS011;42613;47.424;8.560;2023-06-19T07:30:20;6.95;;;4.60;;
56730;SDS011;42613;47.424;8.560;2023-06-19T07:32:46;8.38;;;5.05;;
56730;SDS011;42613;47.424;8.560;2023-06-19T07:35:11;6.30;;;5.40;;
56730;SDS011;42613;47.424;8.560;2023-06-19T07:37:37;6.45;;;5.63;;
56730;SDS011;42613;47.424;8.560;2023-06-19T07:40:02;5.90;;;5.07;;
56730;SDS011;42613;47.424;8.560;2023-06-19T07:42:28;6.70;;;5.03;;
56730;SDS011;42613;47.424;8.560;2023-06-19T07:44:53;10.23;;;5.03;;
56730;SDS011;42613;47.424;8.560;2023-06-19T07:47:19;6.77;;;4.50;;
56730;SDS011;42613;47.424;8.560;2023-06-19T07:49:45;8.75;;;4.55;;
56730;SDS011;42613;47.424;8.560;2023-06-19T07:52:11;9.65;;;5.20;;
56730;SDS011;42613;47.424;8.560;2023-06-19T07:54:47;4.82;;;4.32;;
56730;SDS011;42613;47.424;8.560;2023-06-19T07:57:23;5.68;;;4.70;;
56730;SDS011;42613;47.424;8.560;2023-06-19T07:59:50;7.63;;;5.13;;
56730;SDS011;42613;47.424;8.560;2023-06-19T08:02:18;5.90;;;5.22;;
56730;SDS011;42613;47.424;8.560;2023-06-19T08:04:45;6.53;;;5.70;;
56730;SDS011;42613;47.424;8.560;2023-06-19T08:07:11;11.80;;;7.45;;
56730;SDS011;42613;47.424;8.560;2023-06-19T08:09:37;11.05;;;6.25;;
56730;SDS011;42613;47.424;8.560;2023-06-19T08:12:02;6.18;;;5.35;;
56730;SDS011;42613;47.424;8.560;2023-06-19T08:14:27;10.50;;;7.78;;
56730;SDS011;42613;47.424;8.560;2023-06-19T08:16:53;8.27;;;6.40;;
56730;SDS011;42613;47.424;8.560;2023-06-19T08:19:19;9.02;;;6.88;;
56730;SDS011;42613;47.424;8.560;2023-06-19T08:21:44;12.52;;;7.10;;
56730;SDS011;42613;47.424;8.560;2023-06-19T08:24:10;14.27;;;7.68;;
56730;SDS011;42613;47.424;8.560;2023-06-19T08:26:35;11.40;;;7.07;;
56730;SDS011;42613;47.424;8.560;2023-06-19T08:29:00;9.98;;;6.80;;
56730;SDS011;42613;47.424;8.560;2023-06-19T08:31:26;12.90;;;8.13;;
56730;SDS011;42613;47.424;8.560;2023-06-19T08:33:53;7.50;;;6.80;;
56730;SDS011;42613;47.424;8.560;2023-06-19T08:36:19;7.60;;;5.75;;
56730;SDS011;42613;47.424;8.560;2023-06-19T08:38:44;7.43;;;6.55;;
56730;SDS011;42613;47.424;8.560;2023-06-19T08:41:12;8.40;;;7.07;;
56730;SDS011;42613;47.424;8.560;2023-06-19T08:43:37;8.55;;;7.47;;
56730;SDS011;42613;47.424;8.560;2023-06-19T08:48:36;10.02;;;7.60;;
56730;SDS011;42613;47.424;8.560;2023-06-19T08:51:06;10.98;;;8.50;;
56730;SDS011;42613;47.424;8.560;2023-06-19T08:53:35;11.20;;;7.85;;
56730;SDS011;42613;47.424;8.560;2023-06-19T08:58:28;12.90;;;6.72;;
56730;SDS011;42613;47.424;8.560;2023-06-19T09:00:53;6.47;;;5.85;;
56730;SDS011;42613;47.424;8.560;2023-06-19T09:03:19;9.85;;;7.13;;
56730;SDS011;42613;47.424;8.560;2023-06-19T09:05:48;6.55;;;5.57;;
56730;SDS011;42613;47.424;8.560;2023-06-19T09:08:18;6.35;;;5.70;;
56730;SDS011;42613;47.424;8.560;2023-06-19T09:11:03;7.65;;;5.03;;
56730;SDS011;42613;47.424;8.560;2023-06-19T09:13:30;5.65;;;5.07;;
56730;SDS011;42613;47.424;8.560;2023-06-19T09:16:03;8.20;;;6.68;;
56730;SDS011;42613;47.424;8.560;2023-06-19T09:18:31;11.75;;;8.20;;
56730;SDS011;42613;47.424;8.560;2023-06-19T09:21:14;9.27;;;7.88;;
56730;SDS011;42613;47.424;8.560;2023-06-19T09:23:43;8.73;;;7.05;;
56730;SDS011;42613;47.424;8.560;2023-06-19T09:26:09;13.23;;;7.28;;
56730;SDS011;42613;47.424;8.560;2023-06-19T09:28:39;10.77;;;8.20;;
56730;SDS011;42613;47.424;8.560;2023-06-19T09:31:06;9.60;;;7.07;;
56730;SDS011;42613;47.424;8.560;2023-06-19T09:33:32;8.43;;;6.93;;
56730;SDS011;42613;47.424;8.560;2023-06-19T09:36:00;10.60;;;7.78;;
56730;SDS011;42613;47.424;8.560;2023-06-19T09:38:28;11.20;;;6.65;;
56730;SDS011;42613;47.424;8.560;2023-06-19T09:40:56;8.27;;;6.53;;
56730;SDS011;42613;47.424;8.560;2023-06-19T09:43:24;8.73;;;7.15;;
56730;SDS011;42613;47.424;8.560;2023-06-19T09:45:52;11.13;;;7.68;;
56730;SDS011;42613;47.424;8.560;2023-06-19T09:48:21;9.25;;;7.22;;
56730;SDS011;42613;47.424;8.560;2023-06-19T09:50:51;10.32;;;7.05;;
56730;SDS011;42613;47.424;8.560;2023-06-19T09:53:20;8.80;;;6.82;;
56730;SDS011;42613;47.424;8.560;2023-06-19T09:55:48;7.72;;;6.15;;
56730;SDS011;42613;47.424;8.560;2023-06-19T09:58:15;9.35;;;6.72;;
56730;SDS011;42613;47.424;8.560;2023-06-19T10:00:43;9.25;;;6.72;;
56730;SDS011;42613;47.424;8.560;2023-06-19T10:03:13;8.55;;;6.32;;
56730;SDS011;42613;47.424;8.560;2023-06-19T10:05:39;7.45;;;6.60;;
56730;SDS011;42613;47.424;8.560;2023-06-19T10:08:05;9.40;;;6.80;;
56730;SDS011;42613;47.424;8.560;2023-06-19T10:10:31;7.80;;;6.95;;
56730;SDS011;42613;47.424;8.560;2023-06-19T10:12:58;8.00;;;6.15;;
56730;SDS011;42613;47.424;8.560;2023-06-19T10:15:25;7.57;;;6.30;;
56730;SDS011;42613;47.424;8.560;2023-06-19T10:17:53;9.35;;;6.97;;
56730;SDS011;42613;47.424;8.560;2023-06-19T10:22:56;9.20;;;7.00;;
56730;SDS011;42613;47.424;8.560;2023-06-19T10:25:23;8.77;;;7.30;;
56730;SDS011;42613;47.424;8.560;2023-06-19T10:27:49;9.70;;;6.90;;
56730;SDS011;42613;47.424;8.560;2023-06-19T10:30:18;8.13;;;6.65;;
56730;SDS011;42613;47.424;8.560;2023-06-19T10:32:45;8.82;;;7.72;;
56730;SDS011;42613;47.424;8.560;2023-06-19T10:35:11;8.77;;;7.53;;
56730;SDS011;42613;47.424;8.560;2023-06-19T10:37:37;10.70;;;6.93;;
56730;SDS011;42613;47.424;8.560;2023-06-19T10:40:03;8.90;;;7.30;;
56730;SDS011;42613;47.424;8.560;2023-06-19T10:42:33;10.65;;;7.05;;
56730;SDS011;42613;47.424;8.560;2023-06-19T10:45:01;10.43;;;7.60;;
56730;SDS011;42613;47.424;8.560;2023-06-19T10:47:28;8.27;;;6.47;;
56730;SDS011;42613;47.424;8.560;2023-06-19T10:49:54;11.05;;;8.25;;
56730;SDS011;42613;47.424;8.560;2023-06-19T10:52:19;11.40;;;8.23;;
56730;SDS011;42613;47.424;8.560;2023-06-19T10:54:45;9.18;;;7.43;;
56730;SDS011;42613;47.424;8.560;2023-06-19T10:57:10;9.00;;;7.68;;
56730;SDS011;42613;47.424;8.560;2023-06-19T10:59:38;7.50;;;6.30;;
56730;SDS011;42613;47.424;8.560;2023-06-19T11:02:04;7.80;;;6.00;;
56730;SDS011;42613;47.424;8.560;2023-06-19T11:04:30;7.03;;;6.05;;
56730;SDS011;42613;47.424;8.560;2023-06-19T11:06:56;7.70;;;6.13;;
56730;SDS011;42613;47.424;8.560;2023-06-19T11:09:21;8.15;;;5.72;;
56730;SDS011;42613;47.424;8.560;2023-06-19T11:11:47;8.48;;;5.85;;
56730;SDS011;42613;47.424;8.560;2023-06-19T11:14:13;7.13;;;5.70;;
56730;SDS011;42613;47.424;8.560;2023-06-19T11:16:44;6.82;;;5.35;;
56730;SDS011;42613;47.424;8.560;2023-06-19T11:21:45;5.53;;;5.00;;
56730;SDS011;42613;47.424;8.560;2023-06-19T11:24:12;5.28;;;4.78;;
56730;SDS011;42613;47.424;8.560;2023-06-19T11:26:42;7.25;;;5.78;;
56730;SDS011;42613;47.424;8.560;2023-06-19T11:29:15;6.05;;;5.45;;
56730;SDS011;42613;47.424;8.560;2023-06-19T11:31:51;10.20;;;5.13;;
56730;SDS011;42613;47.424;8.560;2023-06-19T11:34:19;8.05;;;6.78;;
56730;SDS011;42613;47.424;8.560;2023-06-19T11:36:44;8.35;;;6.03;;
56730;SDS011;42613;47.424;8.560;2023-06-19T11:39:13;6.38;;;5.47;;
56730;SDS011;42613;47.424;8.560;2023-06-19T11:41:40;5.40;;;4.90;;
56730;SDS011;42613;47.424;8.560;2023-06-19T11:44:07;8.20;;;5.40;;
56730;SDS011;42613;47.424;8.560;2023-06-19T11:46:35;5.43;;;4.93;;
56730;SDS011;42613;47.424;8.560;2023-06-19T11:51:34;5.18;;;4.25;;
56730;SDS011;42613;47.424;8.560;2023-06-19T11:54:00;8.32;;;4.78;;
56730;SDS011;42613;47.424;8.560;2023-06-19T11:56:25;5.68;;;4.32;;
56730;SDS011;42613;47.424;8.560;2023-06-19T11:58:51;5.03;;;3.97;;
56730;SDS011;42613;47.424;8.560;2023-06-19T12:01:16;9.88;;;4.80;;
56730;SDS011;42613;47.424;8.560;2023-06-19T12:03:41;7.33;;;4.00;;
56730;SDS011;42613;47.424;8.560;2023-06-19T12:06:06;5.47;;;4.00;;
56730;SDS011;42613;47.424;8.560;2023-06-19T12:08:32;5.60;;;3.80;;
56730;SDS011;42613;47.424;8.560;2023-06-19T12:10:58;4.15;;;3.80;;
56730;SDS011;42613;47.424;8.560;2023-06-19T12:13:23;6.32;;;4.10;;
56730;SDS011;42613;47.424;8.560;2023-06-19T12:15:48;4.27;;;3.87;;
56730;SDS011;42613;47.424;8.560;2023-06-19T12:18:14;3.80;;;3.50;;
56730;SDS011;42613;47.424;8.560;2023-06-19T12:20:39;3.72;;;3.35;;
56730;SDS011;42613;47.424;8.560;2023-06-19T12:23:05;8.73;;;4.10;;
56730;SDS011;42613;47.424;8.560;2023-06-19T12:25:30;4.20;;;3.80;;
56730;SDS011;42613;47.424;8.560;2023-06-19T12:27:55;6.15;;;3.35;;
56730;SDS011;42613;47.424;8.560;2023-06-19T12:30:21;4.65;;;3.50;;
56730;SDS011;42613;47.424;8.560;2023-06-19T12:32:46;4.25;;;3.83;;
56730;SDS011;42613;47.424;8.560;2023-06-19T12:35:14;4.10;;;3.70;;
56730;SDS011;42613;47.424;8.560;2023-06-19T12:37:40;5.20;;;3.70;;
56730;SDS011;42613;47.424;8.560;2023-06-19T12:40:05;3.75;;;3.30;;
56730;SDS011;42613;47.424;8.560;2023-06-19T12:42:35;4.22;;;2.97;;
56730;SDS011;42613;47.424;8.560;2023-06-19T12:45:01;5.63;;;3.73;;
56730;SDS011;42613;47.424;8.560;2023-06-19T12:47:26;4.43;;;3.63;;
56730;SDS011;42613;47.424;8.560;2023-06-19T12:49:51;4.20;;;3.80;;
56730;SDS011;42613;47.424;8.560;2023-06-19T12:52:17;6.45;;;4.30;;
56730;SDS011;42613;47.424;8.560;2023-06-19T12:54:42;8.20;;;4.30;;
56730;SDS011;42613;47.424;8.560;2023-06-19T12:57:07;5.30;;;3.47;;
56730;SDS011;42613;47.424;8.560;2023-06-19T12:59:33;5.82;;;4.07;;
56730;SDS011;42613;47.424;8.560;2023-06-19T13:01:58;5.38;;;3.92;;
56730;SDS011;42613;47.424;8.560;2023-06-19T13:04:23;4.28;;;3.60;;
56730;SDS011;42613;47.424;8.560;2023-06-19T13:06:49;4.38;;;3.97;;
56730;SDS011;42613;47.424;8.560;2023-06-19T13:09:14;4.10;;;3.80;;
56730;SDS011;42613;47.424;8.560;2023-06-19T13:11:40;4.22;;;3.70;;
56730;SDS011;42613;47.424;8.560;2023-06-19T13:14:05;5.15;;;3.60;;
56730;SDS011;42613;47.424;8.560;2023-06-19T13:16:31;5.82;;;3.78;;
56730;SDS011;42613;47.424;8.560;2023-06-19T13:18:56;3.67;;;3.30;;
56730;SDS011;42613;47.424;8.560;2023-06-19T13:21:22;4.00;;;3.63;;
56730;SDS011;42613;47.424;8.560;2023-06-19T13:23:47;4.03;;;3.40;;
56730;SDS011;42613;47.424;8.560;2023-06-19T13:26:14;4.72;;;4.00;;
56730;SDS011;42613;47.424;8.560;2023-06-19T13:28:39;9.27;;;3.50;;
56730;SDS011;42613;47.424;8.560;2023-06-19T13:31:05;5.00;;;4.00;;
56730;SDS011;42613;47.424;8.560;2023-06-19T13:33:30;9.63;;;4.32;;
56730;SDS011;42613;47.424;8.560;2023-06-19T13:35:55;4.82;;;4.35;;
56730;SDS011;42613;47.424;8.560;2023-06-19T13:38:21;4.60;;;3.40;;
56730;SDS011;42613;47.424;8.560;2023-06-19T13:40:47;4.15;;;3.75;;
56730;SDS011;42613;47.424;8.560;2023-06-19T13:43:13;5.53;;;4.30;;
56730;SDS011;42613;47.424;8.560;2023-06-19T13:45:39;4.55;;;4.10;;
56730;SDS011;42613;47.424;8.560;2023-06-19T13:48:05;8.40;;;4.00;;
56730;SDS011;42613;47.424;8.560;2023-06-19T13:50:31;5.70;;;4.30;;
56730;SDS011;42613;47.424;8.560;2023-06-19T13:52:58;5.55;;;4.03;;
56730;SDS011;42613;47.424;8.560;2023-06-19T13:55:23;4.82;;;3.92;;
56730;SDS011;42613;47.424;8.560;2023-06-19T13:57:49;5.77;;;4.00;;
56730;SDS011;42613;47.424;8.560;2023-06-19T14:00:14;5.00;;;3.87;;
56730;SDS011;42613;47.424;8.560;2023-06-19T14:02:40;4.28;;;3.70;;
56730;SDS011;42613;47.424;8.560;2023-06-19T14:05:06;4.63;;;3.60;;
56730;SDS011;42613;47.424;8.560;2023-06-19T14:07:35;5.00;;;3.73;;
56730;SDS011;42613;47.424;8.560;2023-06-19T14:10:02;7.45;;;4.18;;
56730;SDS011;42613;47.424;8.560;2023-06-19T14:12:29;5.22;;;3.90;;
56730;SDS011;42613;47.424;8.560;2023-06-19T14:14:54;5.00;;;4.35;;
56730;SDS011;42613;47.424;8.560;2023-06-19T14:17:20;4.20;;;3.80;;
56730;SDS011;42613;47.424;8.560;2023-06-19T14:19:46;4.60;;;4.05;;
56730;SDS011;42613;47.424;8.560;2023-06-19T14:22:11;5.75;;;4.30;;
56730;SDS011;42613;47.424;8.560;2023-06-19T14:24:37;5.20;;;4.43;;
56730;SDS011;42613;47.424;8.560;2023-06-19T14:27:02;4.35;;;3.95;;
56730;SDS011;42613;47.424;8.560;2023-06-19T14:29:28;8.40;;;4.28;;
56730;SDS011;42613;47.424;8.560;2023-06-19T14:31:53;4.82;;;3.75;;
56730;SDS011;42613;47.424;8.560;2023-06-19T14:34:19;9.73;;;4.37;;
56730;SDS011;42613;47.424;8.560;2023-06-19T14:36:45;7.40;;;4.00;;
56730;SDS011;42613;47.424;8.560;2023-06-19T14:39:11;6.63;;;4.07;;
56730;SDS011;42613;47.424;8.560;2023-06-19T14:41:36;4.47;;;4.07;;
56730;SDS011;42613;47.424;8.560;2023-06-19T14:44:02;6.38;;;4.05;;
56730;SDS011;42613;47.424;8.560;2023-06-19T14:46:28;5.18;;;4.20;;
56730;SDS011;42613;47.424;8.560;2023-06-19T14:48:53;6.35;;;4.45;;
56730;SDS011;42613;47.424;8.560;2023-06-19T14:51:18;4.72;;;3.90;;
56730;SDS011;42613;47.424;8.560;2023-06-19T14:53:44;5.15;;;4.28;;
56730;SDS011;42613;47.424;8.560;2023-06-19T14:56:09;4.82;;;4.32;;